Time,TemperatureF,DewpointF,PressureIn,WindDirection,WindDirectionDegrees,WindSpeedMPH,WindSpeedGustMPH,Humidity,HourlyPrecipIn,Conditions,Clouds,dailyrainin,SoftwareType,DateUTC
2013-05-05 00:05:00,48.6,43.0,30.20,West,279,0.0,3.0,81,0.00,,,0.00,weatherlink.com 1.10,2013-05-05 04:05:00,
2013-05-05 00:21:00,47.9,43.0,30.20,West,279,0.0,3.0,83,0.00,,,0.00,weatherlink.com 1.10,2013-05-05 04:21:00,
2013-05-05 00:35:00,47.1,43.0,30.20,West,279,0.0,2.0,84,0.00,,,0.00,weatherlink.com 1.10,2013-05-05 04:35:00,
2013-05-05 00:50:00,46.5,42.0,30.20,West,279,1.0,3.0,85,0.00,,,0.00,weatherlink.com 1.10,2013-05-05 04:50:00,
2013-05-05 01:05:00,46.3,42.0,30.20,West,279,0.0,2.0,85,0.00,,,0.00,weatherlink.com 1.10,2013-05-05 05:05:00,
2013-05-05 01:20:00,45.4,42.0,30.19,West,279,2.0,3.0,87,0.00,,,0.00,weatherlink.com 1.10,2013-05-05 05:20:00,
2013-05-05 01:35:00,45.5,42.0,30.19,West,279,0.0,3.0,86,0.00,,,0.00,weatherlink.com 1.10,2013-05-05 05:35:00,
2013-05-05 01:50:00,45.2,42.0,30.18,West,279,1.0,3.0,88,0.00,,,0.00,weatherlink.com 1.10,2013-05-05 05:50:00,
2013-05-05 02:05:00,44.9,41.0,30.18,West,279,0.0,1.0,87,0.00,,,0.00,weatherlink.com 1.10,2013-05-05 06:05:00,
2013-05-05 02:21:00,44.0,41.0,30.18,West,279,0.0,0.0,89,0.00,,,0.00,weatherlink.com 1.10,2013-05-05 06:21:00,
2013-05-05 02:36:00,43.3,41.0,30.18,West,279,2.0,2.0,90,0.00,,,0.00,weatherlink.com 1.10,2013-05-05 06:36:00,
2013-05-05 02:51:00,42.9,41.0,30.18,West,279,3.0,3.0,91,0.00,,,0.00,weatherlink.com 1.10,2013-05-05 06:51:00,
2013-05-05 03:06:00,43.0,41.0,30.18,West,279,1.0,3.0,91,0.00,,,0.00,weatherlink.com 1.10,2013-05-05 07:06:00,
2013-05-05 03:21:00,42.5,40.0,30.18,West,279,3.0,4.0,91,0.00,,,0.00,weatherlink.com 1.10,2013-05-05 07:21:00,
2013-05-05 03:36:00,42.3,40.0,30.19,West,279,2.0,2.0,90,0.00,,,0.00,weatherlink.com 1.10,2013-05-05 07:36:00,
2013-05-05 03:51:00,41.9,40.0,30.19,West,279,0.0,3.0,91,0.00,,,0.00,weatherlink.com 1.10,2013-05-05 07:51:00,
2013-05-05 04:06:00,41.6,40.0,30.19,West,279,2.0,3.0,92,0.00,,,0.00,weatherlink.com 1.10,2013-05-05 08:06:00,
2013-05-05 04:21:00,41.1,39.0,30.19,West,279,0.0,0.0,92,0.00,,,0.00,weatherlink.com 1.10,2013-05-05 08:21:00,
2013-05-05 04:36:00,40.6,39.0,30.18,West,279,0.0,3.0,93,0.00,,,0.00,weatherlink.com 1.10,2013-05-05 08:36:00,
2013-05-05 04:51:00,40.3,39.0,30.18,West,279,0.0,3.0,93,0.00,,,0.00,weatherlink.com 1.10,2013-05-05 08:51:00,
2013-05-05 05:11:00,39.8,38.0,30.19,West,279,0.0,3.0,93,0.00,,,0.00,weatherlink.com 1.10,2013-05-05 09:11:00,
2013-05-05 05:22:00,39.8,38.0,30.19,West,279,2.0,3.0,93,0.00,,,0.00,weatherlink.com 1.10,2013-05-05 09:22:00,
2013-05-05 05:37:00,39.5,38.0,30.19,West,279,1.0,2.0,93,0.00,,,0.00,weatherlink.com 1.10,2013-05-05 09:37:00,
2013-05-05 05:52:00,39.2,37.0,30.20,West,279,0.0,0.0,93,0.00,,,0.00,weatherlink.com 1.10,2013-05-05 09:52:00,
2013-05-05 06:07:00,39.1,38.0,30.20,West,281,0.0,3.0,94,0.00,,,0.00,weatherlink.com 1.10,2013-05-05 10:07:00,
2013-05-05 06:22:00,38.7,37.0,30.20,West,281,0.0,0.0,93,0.00,,,0.00,weatherlink.com 1.10,2013-05-05 10:22:00,
2013-05-05 06:37:00,38.4,37.0,30.20,West,281,0.0,0.0,94,0.00,,,0.00,weatherlink.com 1.10,2013-05-05 10:37:00,
2013-05-05 06:52:00,39.5,38.0,30.20,West,281,0.0,0.0,94,0.00,,,0.00,weatherlink.com 1.10,2013-05-05 10:52:00,
2013-05-05 07:07:00,41.1,40.0,30.20,West,281,0.0,1.0,95,0.00,,,0.00,weatherlink.com 1.10,2013-05-05 11:07:00,
2013-05-05 07:23:00,42.9,42.0,30.20,West,281,0.0,1.0,95,0.00,,,0.00,weatherlink.com 1.10,2013-05-05 11:23:00,
2013-05-05 07:39:00,44.8,43.0,30.20,West,281,0.0,1.0,94,0.00,,,0.00,weatherlink.com 1.10,2013-05-05 11:39:00,
2013-05-05 07:53:00,47.3,44.0,30.20,North,5,0.0,1.0,89,0.00,,,0.00,weatherlink.com 1.10,2013-05-05 11:53:00,
2013-05-05 08:08:00,49.9,43.0,30.20,SSW,202,0.0,2.0,77,0.00,,,0.00,weatherlink.com 1.10,2013-05-05 12:08:00,
2013-05-05 08:23:00,52.8,42.0,30.20,SSW,192,3.0,3.0,66,0.00,,,0.00,weatherlink.com 1.10,2013-05-05 12:23:00,
2013-05-05 08:38:00,54.7,40.0,30.20,SSE,148,1.0,4.0,58,0.00,,,0.00,weatherlink.com 1.10,2013-05-05 12:38:00,
2013-05-05 08:53:00,55.2,40.0,30.20,East,88,2.0,3.0,56,0.00,,,0.00,weatherlink.com 1.10,2013-05-05 12:53:00,
2013-05-05 09:09:00,55.5,37.0,30.20,WSW,246,1.0,3.0,51,0.00,,,0.00,weatherlink.com 1.10,2013-05-05 13:09:00,
2013-05-05 09:24:00,56.8,38.0,30.20,WSW,251,0.0,2.0,50,0.00,,,0.00,weatherlink.com 1.10,2013-05-05 13:24:00,
2013-05-05 09:39:00,58.7,34.0,30.19,SSE,157,2.0,8.0,40,0.00,,,0.00,weatherlink.com 1.10,2013-05-05 13:39:00,
2013-05-05 09:54:00,59.9,34.0,30.19,East,81,1.0,11.0,38,0.00,,,0.00,weatherlink.com 1.10,2013-05-05 13:54:00,
2013-05-05 10:17:00,62.1,35.0,30.18,East,92,0.0,6.0,36,0.00,,,0.00,weatherlink.com 1.10,2013-05-05 14:17:00,
2013-05-05 10:25:00,62.7,34.0,30.18,ENE,76,4.0,9.0,34,0.00,,,0.00,weatherlink.com 1.10,2013-05-05 14:25:00,
2013-05-05 10:41:00,63.4,36.0,30.18,SE,134,1.0,9.0,37,0.00,,,0.00,weatherlink.com 1.10,2013-05-05 14:41:00,
2013-05-05 10:56:00,64.3,35.0,30.18,ESE,115,0.0,6.0,34,0.00,,,0.00,weatherlink.com 1.10,2013-05-05 14:56:00,
2013-05-05 11:10:00,65.0,37.0,30.17,SW,215,0.0,10.0,35,0.00,,,0.00,weatherlink.com 1.10,2013-05-05 15:10:00,
2013-05-05 11:26:00,65.9,32.0,30.17,WSW,250,4.0,9.0,28,0.00,,,0.00,weatherlink.com 1.10,2013-05-05 15:26:00,
2013-05-05 11:41:00,66.4,31.0,30.16,SSE,159,7.0,11.0,27,0.00,,,0.00,weatherlink.com 1.10,2013-05-05 15:41:00,
2013-05-05 11:56:00,68.0,35.0,30.16,SE,126,3.0,6.0,30,0.00,,,0.00,weatherlink.com 1.10,2013-05-05 15:56:00,
2013-05-05 12:11:00,67.4,32.0,30.16,NE,49,2.0,9.0,27,0.00,,,0.00,weatherlink.com 1.10,2013-05-05 16:11:00,
2013-05-05 12:27:00,67.4,36.0,30.15,SW,227,3.0,14.0,31,0.00,,,0.00,weatherlink.com 1.10,2013-05-05 16:27:00,
2013-05-05 12:41:00,68.3,35.0,30.14,NE,50,1.0,7.0,29,0.00,,,0.00,weatherlink.com 1.10,2013-05-05 16:41:00,
2013-05-05 12:57:00,68.3,36.0,30.14,NW,313,3.0,12.0,30,0.00,,,0.00,weatherlink.com 1.10,2013-05-05 16:57:00,
2013-05-05 13:12:00,68.0,34.0,30.14,North,5,3.0,14.0,28,0.00,,,0.00,weatherlink.com 1.10,2013-05-05 17:12:00,
2013-05-05 13:28:00,68.5,35.0,30.13,SSE,162,1.0,10.0,29,0.00,,,0.00,weatherlink.com 1.10,2013-05-05 17:28:00,
2013-05-05 13:43:00,70.2,33.0,30.13,SSE,157,10.0,12.0,25,0.00,,,0.00,weatherlink.com 1.10,2013-05-05 17:43:00,
2013-05-05 13:58:00,69.1,32.0,30.13,NE,46,5.0,8.0,25,0.00,,,0.00,weatherlink.com 1.10,2013-05-05 17:58:00,
2013-05-05 14:13:00,69.4,32.0,30.13,East,86,6.0,12.0,25,0.00,,,0.00,weatherlink.com 1.10,2013-05-05 18:13:00,
2013-05-05 14:29:00,70.4,29.0,30.12,SSE,149,3.0,11.0,21,0.00,,,0.00,weatherlink.com 1.10,2013-05-05 18:29:00,
2013-05-05 14:45:00,70.0,30.0,30.12,NW,308,2.0,6.0,23,0.00,,,0.00,weatherlink.com 1.10,2013-05-05 18:45:00,
2013-05-05 15:15:00,70.8,33.0,30.10,ENE,59,5.0,7.0,25,0.00,,,0.00,weatherlink.com 1.10,2013-05-05 19:15:00,
2013-05-05 15:29:00,71.0,30.0,30.10,ENE,67,4.0,11.0,22,0.00,,,0.00,weatherlink.com 1.10,2013-05-05 19:29:00,
2013-05-05 15:44:00,70.6,31.0,30.10,SE,125,7.0,8.0,23,0.00,,,0.00,weatherlink.com 1.10,2013-05-05 19:44:00,
2013-05-05 16:00:00,70.3,30.0,30.10,ENE,65,2.0,10.0,22,0.00,,,0.00,weatherlink.com 1.10,2013-05-05 20:00:00,
2013-05-05 16:14:00,70.9,31.0,30.09,ESE,115,2.0,11.0,23,0.00,,,0.00,weatherlink.com 1.10,2013-05-05 20:14:00,
2013-05-05 16:29:00,71.0,32.0,30.09,WSW,238,4.0,11.0,24,0.00,,,0.00,weatherlink.com 1.10,2013-05-05 20:29:00,
2013-05-05 16:51:00,71.4,35.0,30.09,WSW,257,2.0,7.0,26,0.00,,,0.00,weatherlink.com 1.10,2013-05-05 20:51:00,
2013-05-05 17:02:00,71.3,32.0,30.09,ESE,112,2.0,8.0,23,0.00,,,0.00,weatherlink.com 1.10,2013-05-05 21:02:00,
2013-05-05 17:15:00,71.0,30.0,30.09,SSE,151,0.0,13.0,22,0.00,,,0.00,weatherlink.com 1.10,2013-05-05 21:15:00,
2013-05-05 17:30:00,70.6,32.0,30.09,ENE,71,1.0,6.0,24,0.00,,,0.00,weatherlink.com 1.10,2013-05-05 21:30:00,
2013-05-05 17:47:00,70.3,30.0,30.09,SSE,156,2.0,8.0,22,0.00,,,0.00,weatherlink.com 1.10,2013-05-05 21:47:00,
2013-05-05 18:05:00,69.2,24.0,30.09,SSE,153,5.0,8.0,18,0.00,,,0.00,weatherlink.com 1.10,2013-05-05 22:05:00,
2013-05-05 18:15:00,69.1,26.0,30.09,SE,126,1.0,3.0,20,0.00,,,0.00,weatherlink.com 1.10,2013-05-05 22:15:00,
2013-05-05 18:31:00,68.9,22.0,30.09,SE,142,4.0,5.0,17,0.00,,,0.00,weatherlink.com 1.10,2013-05-05 22:31:00,
2013-05-05 18:47:00,67.4,27.0,30.09,South,191,1.0,6.0,22,0.00,,,0.00,weatherlink.com 1.10,2013-05-05 22:47:00,
2013-05-05 19:18:00,63.3,28.0,30.10,SSE,147,0.0,6.0,26,0.00,,,0.00,weatherlink.com 1.10,2013-05-05 23:18:00,
2013-05-05 19:31:00,60.9,31.0,30.11,SE,146,0.0,4.0,32,0.00,,,0.00,weatherlink.com 1.10,2013-05-05 23:31:00,
2013-05-05 19:47:00,59.1,31.0,30.11,South,169,0.0,1.0,34,0.00,,,0.00,weatherlink.com 1.10,2013-05-05 23:47:00,
2013-05-05 20:06:00,57.3,30.0,30.12,South,169,0.0,1.0,35,0.00,,,0.00,weatherlink.com 1.10,2013-05-06 00:06:00,
2013-05-05 20:33:00,55.9,30.0,30.13,South,177,0.0,2.0,38,0.00,,,0.00,weatherlink.com 1.10,2013-05-06 00:33:00,
2013-05-05 20:49:00,55.4,31.0,30.13,West,272,0.0,4.0,39,0.00,,,0.00,weatherlink.com 1.10,2013-05-06 00:49:00,
2013-05-05 21:18:00,52.1,37.0,30.14,West,272,0.0,3.0,57,0.00,,,0.00,weatherlink.com 1.10,2013-05-06 01:18:00,
2013-05-05 21:34:00,50.8,35.0,30.15,West,272,1.0,3.0,55,0.00,,,0.00,weatherlink.com 1.10,2013-05-06 01:34:00,
2013-05-05 22:04:00,48.5,37.0,30.15,West,272,2.0,3.0,65,0.00,,,0.00,weatherlink.com 1.10,2013-05-06 02:04:00,
2013-05-05 22:20:00,47.8,37.0,30.16,West,272,0.0,3.0,67,0.00,,,0.00,weatherlink.com 1.10,2013-05-06 02:20:00,
2013-05-05 22:49:00,46.7,37.0,30.15,West,272,0.0,3.0,68,0.00,,,0.00,weatherlink.com 1.10,2013-05-06 02:49:00,
2013-05-05 23:04:00,46.1,38.0,30.15,West,272,0.0,3.0,72,0.00,,,0.00,weatherlink.com 1.10,2013-05-06 03:04:00,
2013-05-05 23:34:00,45.4,37.0,30.15,West,272,2.0,2.0,73,0.00,,,0.00,weatherlink.com 1.10,2013-05-06 03:34:00,
2013-05-05 23:51:00,44.7,38.0,30.15,West,272,2.0,3.0,76,0.00,,,0.00,weatherlink.com 1.10,2013-05-06 03:51:00,